sensor_id;sensor_type;location;lat;lon;timestamp;pressure;altitude;pressure_sealevel;temperature;humidity
62164;BME280;48149;51.132;7.178;2022-11-11T00:01:45;100010.97;;;9.90;100.00
62164;BME280;48149;51.132;7.178;2022-11-11T00:04:10;100009.47;;;9.96;100.00
62164;BME280;48149;51.132;7.178;2022-11-11T00:06:36;100014.34;;;9.99;100.00
62164;BME280;48149;51.132;7.178;2022-11-11T00:09:01;100027.38;;;10.07;100.00
62164;BME280;48149;51.132;7.178;2022-11-11T00:11:29;100027.50;;;10.13;100.00
62164;BME280;48149;51.132;7.178;2022-11-11T00:13:55;100026.50;;;9.92;100.00
62164;BME280;48149;51.132;7.178;2022-11-11T00:16:21;100032.47;;;10.00;100.00
62164;BME280;48149;51.132;7.178;2022-11-11T00:18:48;100030.56;;;9.94;100.00
62164;BME280;48149;51.132;7.178;2022-11-11T00:21:32;100019.81;;;9.89;100.00
62164;BME280;48149;51.132;7.178;2022-11-11T00:24:25;100020.16;;;10.09;100.00
62164;BME280;48149;51.132;7.178;2022-11-11T00:27:10;100012.13;;;10.33;100.00
62164;BME280;48149;51.132;7.178;2022-11-11T00:29:36;100032.53;;;9.39;100.00
62164;BME280;48149;51.132;7.178;2022-11-11T00:32:02;100049.47;;;9.51;100.00
62164;BME280;48149;51.132;7.178;2022-11-11T00:34:51;100054.78;;;10.19;100.00
62164;BME280;48149;51.132;7.178;2022-11-11T00:37:36;100053.78;;;10.20;100.00
62164;BME280;48149;51.132;7.178;2022-11-11T00:40:01;100058.47;;;10.02;100.00
62164;BME280;48149;51.132;7.178;2022-11-11T00:42:27;100057.44;;;10.11;100.00
62164;BME280;48149;51.132;7.178;2022-11-11T00:44:53;100060.22;;;10.09;100.00
62164;BME280;48149;51.132;7.178;2022-11-11T00:47:18;100048.41;;;9.91;100.00
62164;BME280;48149;51.132;7.178;2022-11-11T00:52:49;100053.47;;;9.61;100.00
62164;BME280;48149;51.132;7.178;2022-11-11T00:55:14;100050.53;;;9.64;100.00
62164;BME280;48149;51.132;7.178;2022-11-11T00:57:41;100048.47;;;9.52;100.00
62164;BME280;48149;51.132;7.178;2022-11-11T01:00:06;100054.00;;;9.57;100.00
62164;BME280;48149;51.132;7.178;2022-11-11T01:02:31;100055.75;;;9.64;100.00
62164;BME280;48149;51.132;7.178;2022-11-11T01:04:57;100052.03;;;9.59;100.00
62164;BME280;48149;51.132;7.178;2022-11-11T01:07:22;100057.19;;;9.44;100.00
62164;BME280;48149;51.132;7.178;2022-11-11T01:09:47;100060.06;;;9.57;100.00
62164;BME280;48149;51.132;7.178;2022-11-11T01:12:12;100052.78;;;9.68;100.00
62164;BME280;48149;51.132;7.178;2022-11-11T01:14:38;100057.72;;;9.32;100.00
62164;BME280;48149;51.132;7.178;2022-11-11T01:17:03;100064.63;;;9.55;100.00
62164;BME280;48149;51.132;7.178;2022-11-11T01:19:31;100056.69;;;9.72;100.00
62164;BME280;48149;51.132;7.178;2022-11-11T01:21:56;100052.50;;;9.62;100.00
62164;BME280;48149;51.132;7.178;2022-11-11T01:24:22;100054.69;;;9.20;100.00
62164;BME280;48149;51.132;7.178;2022-11-11T01:26:48;100057.53;;;8.94;100.00
62164;BME280;48149;51.132;7.178;2022-11-11T01:29:14;100050.97;;;8.98;100.00
62164;BME280;48149;51.132;7.178;2022-11-11T01:31:40;100054.09;;;9.41;100.00
62164;BME280;48149;51.132;7.178;2022-11-11T01:34:05;100064.47;;;9.57;100.00
62164;BME280;48149;51.132;7.178;2022-11-11T01:36:30;100058.97;;;9.75;100.00
62164;BME280;48149;51.132;7.178;2022-11-11T01:38:57;100062.69;;;9.49;100.00
62164;BME280;48149;51.132;7.178;2022-11-11T01:41:24;100074.06;;;9.64;100.00
62164;BME280;48149;51.132;7.178;2022-11-11T01:46:53;100078.28;;;9.74;100.00
62164;BME280;48149;51.132;7.178;2022-11-11T01:49:41;100075.88;;;9.87;100.00
62164;BME280;48149;51.132;7.178;2022-11-11T01:52:23;100071.97;;;9.60;100.00
62164;BME280;48149;51.132;7.178;2022-11-11T01:54:55;100072.47;;;9.55;100.00
62164;BME280;48149;51.132;7.178;2022-11-11T01:57:23;100079.50;;;9.08;100.00
62164;BME280;48149;51.132;7.178;2022-11-11T01:59:52;100070.16;;;9.22;100.00
62164;BME280;48149;51.132;7.178;2022-11-11T02:03:10;100078.09;;;9.44;100.00
62164;BME280;48149;51.132;7.178;2022-11-11T02:05:12;100081.03;;;9.41;100.00
62164;BME280;48149;51.132;7.178;2022-11-11T02:07:57;100076.44;;;9.04;100.00
62164;BME280;48149;51.132;7.178;2022-11-11T02:10:24;100075.19;;;9.31;100.00
62164;BME280;48149;51.132;7.178;2022-11-11T02:12:50;100071.19;;;9.13;100.00
62164;BME280;48149;51.132;7.178;2022-11-11T02:15:37;100073.59;;;9.22;100.00
62164;BME280;48149;51.132;7.178;2022-11-11T02:18:03;100069.13;;;9.39;100.00
62164;BME280;48149;51.132;7.178;2022-11-11T02:20:30;100068.31;;;9.38;100.00
62164;BME280;48149;51.132;7.178;2022-11-11T02:23:00;100068.13;;;9.40;100.00
62164;BME280;48149;51.132;7.178;2022-11-11T02:25:26;100070.09;;;9.38;100.00
62164;BME280;48149;51.132;7.178;2022-11-11T02:27:53;100068.19;;;9.32;100.00
62164;BME280;48149;51.132;7.178;2022-11-11T02:30:21;100066.75;;;9.52;100.00
62164;BME280;48149;51.132;7.178;2022-11-11T02:32:48;100066.19;;;9.34;100.00
62164;BME280;48149;51.132;7.178;2022-11-11T02:35:16;100068.19;;;9.62;100.00
62164;BME280;48149;51.132;7.178;2022-11-11T02:37:42;100067.63;;;9.44;100.00
62164;BME280;48149;51.132;7.178;2022-11-11T02:40:09;100060.94;;;9.42;100.00
62164;BME280;48149;51.132;7.178;2022-11-11T02:42:36;100063.38;;;9.43;100.00
62164;BME280;48149;51.132;7.178;2022-11-11T02:45:01;100064.09;;;9.29;100.00
62164;BME280;48149;51.132;7.178;2022-11-11T02:47:26;100067.34;;;9.31;100.00
62164;BME280;48149;51.132;7.178;2022-11-11T02:49:52;100065.50;;;9.40;100.00
62164;BME280;48149;51.132;7.178;2022-11-11T02:52:17;100063.09;;;9.30;100.00
62164;BME280;48149;51.132;7.178;2022-11-11T02:54:42;100067.69;;;9.28;100.00
62164;BME280;48149;51.132;7.178;2022-11-11T02:57:08;100061.16;;;9.32;100.00
62164;BME280;48149;51.132;7.178;2022-11-11T02:59:35;100049.81;;;9.09;100.00
62164;BME280;48149;51.132;7.178;2022-11-11T03:02:01;100066.69;;;9.37;100.00
62164;BME280;48149;51.132;7.178;2022-11-11T03:04:27;100057.72;;;9.62;100.00
62164;BME280;48149;51.132;7.178;2022-11-11T03:06:53;100062.28;;;9.30;100.00
62164;BME280;48149;51.132;7.178;2022-11-11T03:09:18;100060.06;;;9.57;100.00
62164;BME280;48149;51.132;7.178;2022-11-11T03:11:43;100068.25;;;9.54;100.00
62164;BME280;48149;51.132;7.178;2022-11-11T03:14:08;100064.16;;;9.13;100.00
62164;BME280;48149;51.132;7.178;2022-11-11T03:16:35;100069.22;;;9.53;100.00
62164;BME280;48149;51.132;7.178;2022-11-11T03:19:19;100063.59;;;9.64;100.00
62164;BME280;48149;51.132;7.178;2022-11-11T03:21:44;100062.53;;;9.51;100.00
62164;BME280;48149;51.132;7.178;2022-11-11T03:24:10;100065.84;;;9.45;100.00
62164;BME280;48149;51.132;7.178;2022-11-11T03:26:35;100069.59;;;9.42;100.00
62164;BME280;48149;51.132;7.178;2022-11-11T03:29:01;100062.75;;;8.94;100.00
62164;BME280;48149;51.132;7.178;2022-11-11T03:31:26;100060.28;;;9.01;100.00
62164;BME280;48149;51.132;7.178;2022-11-11T03:33:51;100063.09;;;8.91;100.00
62164;BME280;48149;51.132;7.178;2022-11-11T03:36:16;100063.25;;;8.90;100.00
62164;BME280;48149;51.132;7.178;2022-11-11T03:38:42;100070.22;;;9.14;100.00
62164;BME280;48149;51.132;7.178;2022-11-11T03:41:08;100066.63;;;8.98;100.00
62164;BME280;48149;51.132;7.178;2022-11-11T03:43:33;100061.22;;;9.08;100.00
62164;BME280;48149;51.132;7.178;2022-11-11T03:46:03;100081.09;;;9.17;100.00
62164;BME280;48149;51.132;7.178;2022-11-11T03:48:31;100071.00;;;9.22;100.00
62164;BME280;48149;51.132;7.178;2022-11-11T03:50:56;100072.00;;;9.52;100.00
62164;BME280;48149;51.132;7.178;2022-11-11T03:53:22;100070.88;;;9.46;100.00
62164;BME280;48149;51.132;7.178;2022-11-11T03:55:48;100065.19;;;8.96;100.00
62164;BME280;48149;51.132;7.178;2022-11-11T03:58:14;100061.56;;;9.05;100.00
62164;BME280;48149;51.132;7.178;2022-11-11T04:00:39;100065.81;;;9.06;100.00
62164;BME280;48149;51.132;7.178;2022-11-11T04:05:50;100065.16;;;9.04;100.00
62164;BME280;48149;51.132;7.178;2022-11-11T04:08:34;100063.47;;;8.56;100.00
62164;BME280;48149;51.132;7.178;2022-11-11T04:11:22;100065.22;;;8.80;100.00
62164;BME280;48149;51.132;7.178;2022-11-11T04:13:48;100061.50;;;8.66;100.00
62164;BME280;48149;51.132;7.178;2022-11-11T04:16:33;100061.63;;;8.81;100.00
62164;BME280;48149;51.132;7.178;2022-11-11T04:18:59;100052.50;;;8.77;100.00
62164;BME280;48149;51.132;7.178;2022-11-11T04:21:42;100057.88;;;8.91;100.00
62164;BME280;48149;51.132;7.178;2022-11-11T04:24:08;100059.50;;;8.84;100.00
62164;BME280;48149;51.132;7.178;2022-11-11T04:26:54;100069.59;;;8.95;100.00
62164;BME280;48149;51.132;7.178;2022-11-11T04:29:20;100068.66;;;8.64;100.00
62164;BME280;48149;51.132;7.178;2022-11-11T04:34:42;100064.88;;;8.91;100.00
62164;BME280;48149;51.132;7.178;2022-11-11T04:37:09;100068.31;;;8.83;100.00
62164;BME280;48149;51.132;7.178;2022-11-11T04:39:34;100062.63;;;8.64;100.00
62164;BME280;48149;51.132;7.178;2022-11-11T04:42:20;100068.78;;;8.87;100.00
62164;BME280;48149;51.132;7.178;2022-11-11T04:44:45;100075.97;;;9.01;100.00
62164;BME280;48149;51.132;7.178;2022-11-11T04:47:30;100072.38;;;8.86;100.00
62164;BME280;48149;51.132;7.178;2022-11-11T04:49:55;100064.88;;;8.91;100.00
62164;BME280;48149;51.132;7.178;2022-11-11T04:52:21;100071.22;;;9.04;100.00
62164;BME280;48149;51.132;7.178;2022-11-11T04:54:56;100058.72;;;8.68;100.00
62164;BME280;48149;51.132;7.178;2022-11-11T04:57:46;100073.00;;;8.96;100.00
62164;BME280;48149;51.132;7.178;2022-11-11T05:00:16;100063.75;;;8.77;100.00
62164;BME280;48149;51.132;7.178;2022-11-11T05:02:42;100063.34;;;9.13;100.00
62164;BME280;48149;51.132;7.178;2022-11-11T05:05:25;100070.72;;;9.01;100.00
62164;BME280;48149;51.132;7.178;2022-11-11T05:07:51;100070.91;;;8.91;100.00
62164;BME280;48149;51.132;7.178;2022-11-11T05:10:35;100066.66;;;8.90;100.00
62164;BME280;48149;51.132;7.178;2022-11-11T05:13:00;100075.16;;;8.84;100.00
62164;BME280;48149;51.132;7.178;2022-11-11T05:15:49;100069.28;;;8.90;100.00
62164;BME280;48149;51.132;7.178;2022-11-11T05:18:33;100081.19;;;9.01;100.00
62164;BME280;48149;51.132;7.178;2022-11-11T05:21:21;100070.25;;;8.97;100.00
62164;BME280;48149;51.132;7.178;2022-11-11T05:23:50;100083.72;;;9.25;100.00
62164;BME280;48149;51.132;7.178;2022-11-11T05:26:36;100079.69;;;9.06;100.00
62164;BME280;48149;51.132;7.178;2022-11-11T05:29:01;100070.75;;;8.77;100.00
62164;BME280;48149;51.132;7.178;2022-11-11T05:31:27;100077.28;;;8.89;100.00
62164;BME280;48149;51.132;7.178;2022-11-11T05:33:53;100080.53;;;8.91;100.00
62164;BME280;48149;51.132;7.178;2022-11-11T05:36:19;100084.13;;;8.98;100.00
62164;BME280;48149;51.132;7.178;2022-11-11T05:38:45;100086.88;;;9.04;100.00
62164;BME280;48149;51.132;7.178;2022-11-11T05:41:10;100078.09;;;8.89;100.00
62164;BME280;48149;51.132;7.178;2022-11-11T05:43:35;100091.91;;;9.14;100.00
62164;BME280;48149;51.132;7.178;2022-11-11T05:46:01;100097.13;;;9.14;100.00
62164;BME280;48149;51.132;7.178;2022-11-11T05:48:26;100093.47;;;8.68;100.00
62164;BME280;48149;51.132;7.178;2022-11-11T05:50:52;100099.81;;;8.90;100.00
62164;BME280;48149;51.132;7.178;2022-11-11T05:53:20;100089.53;;;8.80;100.00
62164;BME280;48149;51.132;7.178;2022-11-11T05:55:51;100092.00;;;8.82;100.00
62164;BME280;48149;51.132;7.178;2022-11-11T05:58:18;100096.84;;;8.93;100.00
62164;BME280;48149;51.132;7.178;2022-11-11T06:00:44;100096.63;;;9.19;100.00
62164;BME280;48149;51.132;7.178;2022-11-11T06:03:10;100097.19;;;8.98;100.00
62164;BME280;48149;51.132;7.178;2022-11-11T06:05:36;100096.69;;;8.86;100.00
62164;BME280;48149;51.132;7.178;2022-11-11T06:08:01;100099.28;;;9.02;100.00
62164;BME280;48149;51.132;7.178;2022-11-11T06:10:29;100100.59;;;9.06;100.00
62164;BME280;48149;51.132;7.178;2022-11-11T06:12:54;100105.47;;;9.01;100.00
62164;BME280;48149;51.132;7.178;2022-11-11T06:15:30;100114.53;;;8.50;100.00
62164;BME280;48149;51.132;7.178;2022-11-11T06:17:57;100107.34;;;8.28;100.00
62164;BME280;48149;51.132;7.178;2022-11-11T06:20:22;100114.53;;;8.50;100.00
62164;BME280;48149;51.132;7.178;2022-11-11T06:22:50;100111.06;;;8.90;100.00
62164;BME280;48149;51.132;7.178;2022-11-11T06:25:28;100111.03;;;8.98;100.00
62164;BME280;48149;51.132;7.178;2022-11-11T06:28:12;100119.72;;;8.91;100.00
62164;BME280;48149;51.132;7.178;2022-11-11T06:30:40;100124.00;;;8.60;100.00
62164;BME280;48149;51.132;7.178;2022-11-11T06:33:11;100130.63;;;9.02;100.00
62164;BME280;48149;51.132;7.178;2022-11-11T06:35:37;100133.94;;;8.88;100.00
62164;BME280;48149;51.132;7.178;2022-11-11T06:38:03;100132.75;;;9.07;100.00
62164;BME280;48149;51.132;7.178;2022-11-11T06:40:29;100131.75;;;9.08;100.00
62164;BME280;48149;51.132;7.178;2022-11-11T06:42:55;100128.34;;;8.99;100.00
62164;BME280;48149;51.132;7.178;2022-11-11T06:45:22;100119.72;;;8.83;100.00
62164;BME280;48149;51.132;7.178;2022-11-11T06:47:48;100132.13;;;8.97;100.00
62164;BME280;48149;51.132;7.178;2022-11-11T06:50:21;100125.44;;;8.86;100.00
62164;BME280;48149;51.132;7.178;2022-11-11T06:52:47;100132.44;;;8.94;100.00
62164;BME280;48149;51.132;7.178;2022-11-11T06:55:12;100133.59;;;8.91;100.00
62164;BME280;48149;51.132;7.178;2022-11-11T06:57:38;100134.25;;;8.85;100.00
62164;BME280;48149;51.132;7.178;2022-11-11T07:00:04;100137.00;;;9.00;100.00
62164;BME280;48149;51.132;7.178;2022-11-11T07:02:29;100134.88;;;8.95;100.00
62164;BME280;48149;51.132;7.178;2022-11-11T07:04:54;100136.59;;;9.27;100.00
62164;BME280;48149;51.132;7.178;2022-11-11T07:07:20;100145.13;;;9.29;100.00
62164;BME280;48149;51.132;7.178;2022-11-11T07:09:45;100142.47;;;9.37;100.00
62164;BME280;48149;51.132;7.178;2022-11-11T07:12:11;100143.38;;;9.60;100.00
62164;BME280;48149;51.132;7.178;2022-11-11T07:14:36;100149.59;;;9.59;100.00
62164;BME280;48149;51.132;7.178;2022-11-11T07:17:02;100149.72;;;9.66;100.00
62164;BME280;48149;51.132;7.178;2022-11-11T07:19:27;100151.03;;;9.62;100.00
62164;BME280;48149;51.132;7.178;2022-11-11T07:21:53;100154.47;;;9.71;100.00
62164;BME280;48149;51.132;7.178;2022-11-11T07:24:20;100156.13;;;9.55;100.00
62164;BME280;48149;51.132;7.178;2022-11-11T07:26:46;100158.84;;;9.23;100.00
62164;BME280;48149;51.132;7.178;2022-11-11T07:29:11;100166.06;;;8.97;100.00
62164;BME280;48149;51.132;7.178;2022-11-11T07:31:38;100163.91;;;9.25;100.00
62164;BME280;48149;51.132;7.178;2022-11-11T07:34:03;100169.19;;;9.63;100.00
62164;BME280;48149;51.132;7.178;2022-11-11T07:36:28;100160.31;;;9.73;100.00
62164;BME280;48149;51.132;7.178;2022-11-11T07:38:54;100162.44;;;9.14;100.00
62164;BME280;48149;51.132;7.178;2022-11-11T07:41:21;100165.94;;;9.53;100.00
62164;BME280;48149;51.132;7.178;2022-11-11T07:43:48;100164.72;;;9.72;100.00
62164;BME280;48149;51.132;7.178;2022-11-11T07:46:14;100175.09;;;9.57;100.00
62164;BME280;48149;51.132;7.178;2022-11-11T07:48:39;100184.50;;;9.75;100.00
62164;BME280;48149;51.132;7.178;2022-11-11T07:51:04;100169.47;;;10.07;100.00
62164;BME280;48149;51.132;7.178;2022-11-11T07:53:30;100174.34;;;9.80;100.00
62164;BME280;48149;51.132;7.178;2022-11-11T07:56:01;100183.72;;;10.05;100.00
62164;BME280;48149;51.132;7.178;2022-11-11T07:58:26;100180.47;;;10.56;100.00
62164;BME280;48149;51.132;7.178;2022-11-11T08:00:52;100177.34;;;9.99;100.00
62164;BME280;48149;51.132;7.178;2022-11-11T08:03:18;100190.06;;;10.10;100.00
62164;BME280;48149;51.132;7.178;2022-11-11T08:05:45;100194.97;;;10.05;100.00
62164;BME280;48149;51.132;7.178;2022-11-11T08:08:10;100190.28;;;10.01;100.00
62164;BME280;48149;51.132;7.178;2022-11-11T08:10:40;100195.81;;;10.14;100.00
62164;BME280;48149;51.132;7.178;2022-11-11T08:13:05;100196.13;;;10.64;100.00
62164;BME280;48149;51.132;7.178;2022-11-11T08:15:49;100196.59;;;10.45;100.00
62164;BME280;48149;51.132;7.178;2022-11-11T08:18:14;100197.34;;;10.77;100.00
62164;BME280;48149;51.132;7.178;2022-11-11T08:20:41;100193.75;;;11.15;100.00
62164;BME280;48149;51.132;7.178;2022-11-11T08:23:06;100192.59;;;11.32;100.00
62164;BME280;48149;51.132;7.178;2022-11-11T08:25:34;100199.56;;;11.54;100.00
62164;BME280;48149;51.132;7.178;2022-11-11T08:28:01;100191.44;;;11.64;100.00
62164;BME280;48149;51.132;7.178;2022-11-11T08:30:26;100195.03;;;11.34;100.00
62164;BME280;48149;51.132;7.178;2022-11-11T08:32:58;100191.75;;;10.80;100.00
62164;BME280;48149;51.132;7.178;2022-11-11T08:35:24;100196.50;;;10.99;100.00
62164;BME280;48149;51.132;7.178;2022-11-11T08:37:53;100189.38;;;12.24;100.00
62164;BME280;48149;51.132;7.178;2022-11-11T08:40:19;100188.00;;;11.63;100.00
62164;BME280;48149;51.132;7.178;2022-11-11T08:42:44;100191.19;;;12.24;100.00
62164;BME280;48149;51.132;7.178;2022-11-11T08:45:10;100185.47;;;13.05;100.00
62164;BME280;48149;51.132;7.178;2022-11-11T08:47:36;100185.56;;;12.27;100.00
62164;BME280;48149;51.132;7.178;2022-11-11T08:50:02;100184.34;;;12.08;100.00
62164;BME280;48149;51.132;7.178;2022-11-11T08:52:28;100192.25;;;13.14;100.00
62164;BME280;48149;51.132;7.178;2022-11-11T08:54:53;100189.25;;;13.45;100.00
62164;BME280;48149;51.132;7.178;2022-11-11T08:57:18;100199.28;;;12.86;100.00
62164;BME280;48149;51.132;7.178;2022-11-11T08:59:43;100199.34;;;12.50;100.00
62164;BME280;48149;51.132;7.178;2022-11-11T09:02:13;100196.31;;;12.96;100.00
62164;BME280;48149;51.132;7.178;2022-11-11T09:04:39;100196.41;;;13.30;100.00
62164;BME280;48149;51.132;7.178;2022-11-11T09:07:05;100191.09;;;13.85;100.00
62164;BME280;48149;51.132;7.178;2022-11-11T09:09:31;100192.34;;;13.62;99.85
62164;BME280;48149;51.132;7.178;2022-11-11T09:11:56;100201.44;;;13.94;96.63
62164;BME280;48149;51.132;7.178;2022-11-11T09:14:23;100188.66;;;12.94;100.00
62164;BME280;48149;51.132;7.178;2022-11-11T09:16:49;100202.56;;;14.25;97.40
62164;BME280;48149;51.132;7.178;2022-11-11T09:19:15;100202.53;;;14.19;98.12
62164;BME280;48149;51.132;7.178;2022-11-11T09:21:40;100213.84;;;14.06;97.87
62164;BME280;48149;51.132;7.178;2022-11-11T09:24:05;100208.78;;;14.65;93.12
62164;BME280;48149;51.132;7.178;2022-11-11T09:26:31;100204.53;;;15.10;92.23
62164;BME280;48149;51.132;7.178;2022-11-11T09:28:56;100208.16;;;15.42;88.34
62164;BME280;48149;51.132;7.178;2022-11-11T09:31:21;100206.91;;;15.77;86.18
62164;BME280;48149;51.132;7.178;2022-11-11T09:33:48;100212.81;;;14.55;95.51
62164;BME280;48149;51.132;7.178;2022-11-11T09:36:14;100214.09;;;15.05;92.55
62164;BME280;48149;51.132;7.178;2022-11-11T09:38:39;100212.03;;;15.46;90.82
62164;BME280;48149;51.132;7.178;2022-11-11T09:48:57;100216.25;;;15.73;90.07
62164;BME280;48149;51.132;7.178;2022-11-11T09:54:30;100218.34;;;16.16;86.80
62164;BME280;48149;51.132;7.178;2022-11-11T09:56:58;100224.13;;;17.06;79.46
62164;BME280;48149;51.132;7.178;2022-11-11T09:59:28;100222.59;;;16.61;75.58
62164;BME280;48149;51.132;7.178;2022-11-11T10:01:56;100227.16;;;16.79;76.82
62164;BME280;48149;51.132;7.178;2022-11-11T10:04:28;100225.44;;;16.66;81.45
62164;BME280;48149;51.132;7.178;2022-11-11T10:07:04;100219.13;;;17.41;73.38
62164;BME280;48149;51.132;7.178;2022-11-11T10:09:32;100215.28;;;17.98;72.58
62164;BME280;48149;51.132;7.178;2022-11-11T10:14:29;100215.22;;;16.32;81.35
62164;BME280;48149;51.132;7.178;2022-11-11T10:19:43;100220.25;;;17.27;71.83
62164;BME280;48149;51.132;7.178;2022-11-11T10:22:22;100214.09;;;17.58;73.62
62164;BME280;48149;51.132;7.178;2022-11-11T10:24:52;100208.28;;;18.52;68.66
62164;BME280;48149;51.132;7.178;2022-11-11T10:27:24;100218.34;;;19.38;63.22
62164;BME280;48149;51.132;7.178;2022-11-11T10:29:50;100214.69;;;17.78;67.65
62164;BME280;48149;51.132;7.178;2022-11-11T10:32:17;100215.25;;;18.17;66.48
62164;BME280;48149;51.132;7.178;2022-11-11T10:34:44;100216.28;;;16.62;78.12
62164;BME280;48149;51.132;7.178;2022-11-11T10:40:26;100206.81;;;16.48;78.04
62164;BME280;48149;51.132;7.178;2022-11-11T10:42:53;100203.56;;;17.02;73.98
62164;BME280;48149;51.132;7.178;2022-11-11T10:45:29;100204.53;;;18.11;67.71
62164;BME280;48149;51.132;7.178;2022-11-11T10:48:04;100216.84;;;20.28;57.70
62164;BME280;48149;51.132;7.178;2022-11-11T10:50:37;100209.84;;;20.84;56.71
62164;BME280;48149;51.132;7.178;2022-11-11T10:53:10;100214.41;;;22.37;49.29
62164;BME280;48149;51.132;7.178;2022-11-11T11:00:35;100221.34;;;23.65;43.89
62164;BME280;48149;51.132;7.178;2022-11-11T11:07:59;100224.28;;;22.14;46.37
62164;BME280;48149;51.132;7.178;2022-11-11T11:10:33;100231.13;;;22.80;44.13
62164;BME280;48149;51.132;7.178;2022-11-11T11:15:56;100223.50;;;21.92;46.82
62164;BME280;48149;51.132;7.178;2022-11-11T11:18:22;100219.53;;;23.33;43.09
62164;BME280;48149;51.132;7.178;2022-11-11T11:20:57;100214.44;;;24.36;42.51
62164;BME280;48149;51.132;7.178;2022-11-11T11:23:39;100214.47;;;23.00;43.19
62164;BME280;48149;51.132;7.178;2022-11-11T11:26:05;100215.22;;;21.94;47.42
62164;BME280;48149;51.132;7.178;2022-11-11T11:28:30;100211.59;;;21.23;47.04
62164;BME280;48149;51.132;7.178;2022-11-11T11:31:03;100210.00;;;20.94;52.73
62164;BME280;48149;51.132;7.178;2022-11-11T11:36:14;100208.56;;;20.86;53.28
62164;BME280;48149;51.132;7.178;2022-11-11T11:38:41;100209.03;;;21.50;49.51
62164;BME280;48149;51.132;7.178;2022-11-11T11:41:06;100205.97;;;20.74;51.31
62164;BME280;48149;51.132;7.178;2022-11-11T11:43:33;100204.53;;;21.00;50.75
62164;BME280;48149;51.132;7.178;2022-11-11T11:45:59;100201.97;;;19.52;55.36
62164;BME280;48149;51.132;7.178;2022-11-11T11:48:36;100203.63;;;18.66;63.85
62164;BME280;48149;51.132;7.178;2022-11-11T11:51:26;100201.72;;;19.65;58.59
62164;BME280;48149;51.132;7.178;2022-11-11T11:56:38;100197.63;;;18.22;69.30
62164;BME280;48149;51.132;7.178;2022-11-11T11:59:16;100198.56;;;17.98;70.88
62164;BME280;48149;51.132;7.178;2022-11-11T12:04:42;100198.38;;;17.99;71.68
62164;BME280;48149;51.132;7.178;2022-11-11T12:30:51;100180.53;;;18.36;72.32
62164;BME280;48149;51.132;7.178;2022-11-11T12:33:30;100177.03;;;18.24;70.63
62164;BME280;48149;51.132;7.178;2022-11-11T12:36:12;100173.72;;;18.70;75.52
62164;BME280;48149;51.132;7.178;2022-11-11T12:38:49;100167.94;;;18.50;67.09
62164;BME280;48149;51.132;7.178;2022-11-11T12:46:29;100172.28;;;18.15;71.58
62164;BME280;48149;51.132;7.178;2022-11-11T12:49:42;100173.63;;;18.47;70.64
62164;BME280;48149;51.132;7.178;2022-11-11T12:54:47;100166.59;;;18.41;67.83
62164;BME280;48149;51.132;7.178;2022-11-11T12:57:53;100161.41;;;17.68;74.39
62164;BME280;48149;51.132;7.178;2022-11-11T13:05:19;100154.75;;;17.84;76.70
62164;BME280;48149;51.132;7.178;2022-11-11T13:07:59;100154.75;;;18.13;74.80
62164;BME280;48149;51.132;7.178;2022-11-11T13:15:43;100145.97;;;20.22;68.50
62164;BME280;48149;51.132;7.178;2022-11-11T13:18:19;100144.75;;;22.38;52.41
62164;BME280;48149;51.132;7.178;2022-11-11T13:23:18;100157.75;;;23.77;45.82
62164;BME280;48149;51.132;7.178;2022-11-11T13:25:50;100152.97;;;23.79;42.66
62164;BME280;48149;51.132;7.178;2022-11-11T13:28:27;100151.75;;;24.27;42.02
62164;BME280;48149;51.132;7.178;2022-11-11T13:33:46;100151.69;;;24.07;41.51
62164;BME280;48149;51.132;7.178;2022-11-11T13:36:14;100154.84;;;26.97;36.19
62164;BME280;48149;51.132;7.178;2022-11-11T13:41:08;100152.31;;;25.10;39.55
62164;BME280;48149;51.132;7.178;2022-11-11T13:43:42;100150.38;;;25.35;40.78
62164;BME280;48149;51.132;7.178;2022-11-11T13:46:14;100151.50;;;25.24;38.72
62164;BME280;48149;51.132;7.178;2022-11-11T13:48:54;100151.81;;;27.32;35.99
62164;BME280;48149;51.132;7.178;2022-11-11T13:51:36;100143.69;;;25.43;37.03
62164;BME280;48149;51.132;7.178;2022-11-11T13:54:06;100138.16;;;24.89;38.18
62164;BME280;48149;51.132;7.178;2022-11-11T13:56:45;100140.09;;;25.78;37.72
62164;BME280;48149;51.132;7.178;2022-11-11T13:59:17;100144.03;;;25.90;38.01
62164;BME280;48149;51.132;7.178;2022-11-11T14:01:47;100148.00;;;26.81;36.06
62164;BME280;48149;51.132;7.178;2022-11-11T14:04:32;100148.31;;;24.97;36.71
62164;BME280;48149;51.132;7.178;2022-11-11T14:10:05;100140.16;;;25.47;38.67
62164;BME280;48149;51.132;7.178;2022-11-11T14:12:35;100137.69;;;25.71;37.39
62164;BME280;48149;51.132;7.178;2022-11-11T14:15:01;100144.91;;;25.81;38.53
62164;BME280;48149;51.132;7.178;2022-11-11T14:17:31;100137.13;;;26.96;36.47
62164;BME280;48149;51.132;7.178;2022-11-11T14:19:57;100136.44;;;27.09;35.67
62164;BME280;48149;51.132;7.178;2022-11-11T14:24:50;100128.53;;;26.26;36.89
62164;BME280;48149;51.132;7.178;2022-11-11T14:27:17;100134.03;;;26.01;37.00
62164;BME280;48149;51.132;7.178;2022-11-11T14:29:52;100129.78;;;26.00;38.31
62164;BME280;48149;51.132;7.178;2022-11-11T14:32:21;100133.84;;;24.93;39.28
62164;BME280;48149;51.132;7.178;2022-11-11T14:39:51;100140.81;;;24.79;40.15
62164;BME280;48149;51.132;7.178;2022-11-11T14:42:50;100140.00;;;24.78;40.32
62164;BME280;48149;51.132;7.178;2022-11-11T14:47:54;100135.06;;;25.61;38.90
62164;BME280;48149;51.132;7.178;2022-11-11T14:52:59;100136.81;;;24.76;41.04
62164;BME280;48149;51.132;7.178;2022-11-11T14:58:00;100142.72;;;22.77;44.10
62164;BME280;48149;51.132;7.178;2022-11-11T15:00:42;100150.91;;;22.97;44.28